Time;durP1;ratioP1;P1;durP2;ratioP2;P2;SDS_P1;SDS_P2;PMS_P1;PMS_P2;Temp;Humidity;BMP_temperature;BMP_pressure;BME280_temperature;BME280_humidity;BME280_pressure;Samples;Min_cycle;Max_cycle;Signal;HPM_P1;HPM_P2
2023/03/04 00:00:27;;;;;;;11.43;6.63;;;;;;;;;;6247385;28;20067;-82
2023/03/04 00:03:27;;;;;;;6.93;6.45;;;;;;;;;;6245135;28;20041;-81
2023/03/04 00:06:28;;;;;;;5.57;5.05;;;;;;;;;;6246515;28;20022;-81
2023/03/04 00:09:28;;;;;;;3.13;3.00;;;;;;;;;;6246888;28;20021;-81
2023/03/04 00:12:28;;;;;;;4.20;3.97;;;;;;;;;;6252477;28;20099;-80
2023/03/04 00:15:29;;;;;;;3.87;3.67;;;;;;;;;;6246012;28;20026;-81
2023/03/04 00:18:32;;;;;;;12.38;7.25;;;;;;;;;;6245267;28;20430;-80
2023/03/04 00:21:32;;;;;;;5.53;4.13;;;;;;;;;;6246947;28;20037;-81
2023/03/04 00:24:33;;;;;;;6.67;1.97;;;;;;;;;;6247221;28;20455;-81
2023/03/04 00:27:34;;;;;;;10.32;5.45;;;;;;;;;;6246416;28;20018;-81
2023/03/04 00:30:34;;;;;;;3.50;2.60;;;;;;;;;;6251657;28;20029;-81
2023/03/04 00:33:34;;;;;;;6.75;2.58;;;;;;;;;;6249190;28;20026;-81
2023/03/04 00:36:34;;;;;;;5.33;4.83;;;;;;;;;;6238531;28;20032;-81
2023/03/04 00:39:34;;;;;;;4.88;4.60;;;;;;;;;;6245483;28;20140;-80
2023/03/04 00:42:37;;;;;;;4.05;3.85;;;;;;;;;;6247010;28;20476;-81
2023/03/04 00:45:38;;;;;;;5.10;4.78;;;;;;;;;;6244919;28;20032;-81
2023/03/04 00:48:38;;;;;;;4.63;3.67;;;;;;;;;;6239832;28;20045;-82
2023/03/04 00:51:38;;;;;;;2.93;2.73;;;;;;;;;;6248791;28;20017;-81
2023/03/04 00:54:38;;;;;;;5.63;3.53;;;;;;;;;;6246893;28;20024;-82
2023/03/04 00:57:38;;;;;;;2.83;2.70;;;;;;;;;;6249698;28;20475;-83
2023/03/04 01:00:39;;;;;;;10.13;9.33;;;;;;;;;;6234035;28;20031;-82
2023/03/04 01:03:42;;;;;;;3.97;3.80;;;;;;;;;;6250892;28;20463;-83
2023/03/04 01:06:42;;;;;;;4.82;4.50;;;;;;;;;;6250899;28;20036;-82
2023/03/04 01:09:42;;;;;;;7.60;6.83;;;;;;;;;;6245299;28;20021;-82
2023/03/04 01:12:42;;;;;;;4.93;4.47;;;;;;;;;;6244271;28;20172;-83
2023/03/04 01:15:42;;;;;;;4.33;4.03;;;;;;;;;;6251135;28;20025;-83
2023/03/04 01:18:43;;;;;;;7.20;2.57;;;;;;;;;;6238708;28;20079;-82
2023/03/04 01:21:43;;;;;;;2.77;2.67;;;;;;;;;;6245219;28;20061;-83
2023/03/04 01:24:44;;;;;;;3.53;3.33;;;;;;;;;;6244567;28;20383;-83
2023/03/04 01:27:44;;;;;;;3.57;3.07;;;;;;;;;;6245387;28;20272;-83
2023/03/04 01:30:45;;;;;;;1.80;1.80;;;;;;;;;;6241404;28;20096;-83
2023/03/04 01:33:45;;;;;;;4.30;4.03;;;;;;;;;;6250254;28;20426;-83
2023/03/04 01:36:45;;;;;;;5.45;5.05;;;;;;;;;;6228164;28;20072;-82
2023/03/04 01:39:45;;;;;;;2.00;1.95;;;;;;;;;;6246854;28;20398;-83
2023/03/04 01:42:46;;;;;;;1.67;1.67;;;;;;;;;;6254121;28;20020;-82
2023/03/04 01:45:47;;;;;;;4.53;4.20;;;;;;;;;;6244602;28;20105;-83
2023/03/04 01:48:49;;;;;;;9.32;8.52;;;;;;;;;;6243977;28;20025;-82
2023/03/04 01:51:53;;;;;;;10.55;9.45;;;;;;;;;;6249969;28;20033;-82
2023/03/04 01:54:53;;;;;;;2.63;2.53;;;;;;;;;;6252223;28;20029;-82
2023/03/04 01:57:54;;;;;;;4.53;4.30;;;;;;;;;;6244928;28;20048;-83
2023/03/04 02:00:55;;;;;;;3.17;2.97;;;;;;;;;;6248654;28;20029;-83
2023/03/04 02:03:55;;;;;;;4.43;4.13;;;;;;;;;;6233393;28;20318;-83
2023/03/04 02:06:56;;;;;;;5.47;5.10;;;;;;;;;;6248776;28;20018;-83
2023/03/04 02:09:57;;;;;;;5.57;4.78;;;;;;;;;;6230440;28;20016;-82
2023/03/04 02:12:58;;;;;;;4.70;3.10;;;;;;;;;;6245847;28;20050;-82
2023/03/04 02:15:58;;;;;;;1.80;1.80;;;;;;;;;;6250558;28;20510;-84
2023/03/04 02:18:58;;;;;;;11.40;5.80;;;;;;;;;;6244786;28;20288;-82
2023/03/04 02:21:59;;;;;;;8.07;5.43;;;;;;;;;;6244395;28;20041;-82
2023/03/04 02:25:02;;;;;;;9.68;7.55;;;;;;;;;;6245366;28;20036;-83
2023/03/04 02:28:02;;;;;;;9.98;9.15;;;;;;;;;;6227641;28;20017;-84
2023/03/04 02:31:02;;;;;;;4.40;4.17;;;;;;;;;;6227375;28;20041;-83
2023/03/04 02:34:16;;;;;;;4.53;4.23;;;;;;;;;;6251011;28;20025;-84
2023/03/04 02:37:20;;;;;;;6.68;3.20;;;;;;;;;;6244404;28;20028;-83
2023/03/04 02:40:28;;;;;;;9.68;6.15;;;;;;;;;;6248655;28;20021;-83
2023/03/04 02:43:28;;;;;;;4.10;3.80;;;;;;;;;;6249556;28;20021;-83
2023/03/04 02:46:28;;;;;;;3.70;2.17;;;;;;;;;;6251710;28;20044;-83
2023/03/04 02:49:31;;;;;;;5.40;5.00;;;;;;;;;;6255143;28;20479;-83
2023/03/04 02:52:31;;;;;;;12.60;10.80;;;;;;;;;;6252587;28;20049;-83
2023/03/04 02:55:31;;;;;;;8.13;6.10;;;;;;;;;;6249436;28;20382;-82
2023/03/04 02:58:33;;;;;;;6.43;6.07;;;;;;;;;;6242040;28;20030;-84
2023/03/04 03:01:33;;;;;;;4.65;4.35;;;;;;;;;;6248659;28;20029;-83
2023/03/04 03:04:35;;;;;;;35.65;5.53;;;;;;;;;;6249427;28;20502;-82
2023/03/04 03:07:37;;;;;;;;;;;;;;;;;;6250474;28;20021;-82
2023/03/04 03:10:37;;;;;;;1.23;1.17;;;;;;;;;;6248239;28;19928;-82
2023/03/04 03:13:39;;;;;;;4.17;3.97;;;;;;;;;;6248587;28;20088;-82
2023/03/04 03:16:39;;;;;;;4.28;4.03;;;;;;;;;;6247807;28;20033;-83
2023/03/04 03:19:41;;;;;;;3.77;3.60;;;;;;;;;;6247358;28;20045;-82
2023/03/04 03:22:43;;;;;;;2.95;2.80;;;;;;;;;;6251086;28;20029;-82
2023/03/04 03:25:44;;;;;;;4.35;4.05;;;;;;;;;;6250054;28;20021;-82
2023/03/04 03:28:44;;;;;;;7.43;4.25;;;;;;;;;;6248657;28;20013;-83
2023/03/04 03:31:44;;;;;;;4.43;4.23;;;;;;;;;;6247677;28;20167;-83
2023/03/04 03:34:46;;;;;;;2.83;2.63;;;;;;;;;;6247131;28;20480;-83
2023/03/04 03:37:47;;;;;;;3.00;2.80;;;;;;;;;;6247486;28;20080;-82
2023/03/04 03:40:48;;;;;;;2.17;2.08;;;;;;;;;;6247850;28;20029;-82
2023/03/04 03:43:48;;;;;;;2.53;2.43;;;;;;;;;;6246712;28;20083;-82
2023/03/04 03:46:48;;;;;;;0.90;0.90;;;;;;;;;;6238507;28;20480;-82
2023/03/04 03:49:48;;;;;;;4.33;4.10;;;;;;;;;;6249295;28;20033;-82
2023/03/04 03:52:49;;;;;;;28.20;5.47;;;;;;;;;;6249558;28;20051;-83
2023/03/04 03:55:50;;;;;;;1.88;1.77;;;;;;;;;;6246573;28;20403;-81
2023/03/04 03:58:50;;;;;;;4.03;3.83;;;;;;;;;;6246545;28;20021;-83
2023/03/04 04:01:51;;;;;;;7.27;5.40;;;;;;;;;;6231474;28;20050;-82
2023/03/04 04:04:51;;;;;;;3.63;3.42;;;;;;;;;;6246809;28;20022;-83
2023/03/04 04:07:52;;;;;;;5.75;5.40;;;;;;;;;;6249238;28;20017;-82
2023/03/04 04:10:52;;;;;;;1.70;1.60;;;;;;;;;;6253677;28;20041;-81
2023/03/04 04:13:53;;;;;;;7.57;4.10;;;;;;;;;;6245163;28;20458;-81
2023/03/04 04:16:55;;;;;;;29.40;6.90;;;;;;;;;;6228399;28;20091;-82
2023/03/04 04:19:55;;;;;;;4.70;4.32;;;;;;;;;;6247001;28;20098;-82
2023/03/04 04:22:55;;;;;;;4.40;4.13;;;;;;;;;;6245525;28;20033;-81
2023/03/04 04:25:56;;;;;;;12.30;2.57;;;;;;;;;;6244373;28;20021;-81
2023/03/04 04:28:56;;;;;;;41.70;11.17;;;;;;;;;;6247888;28;20088;-81
2023/03/04 04:31:58;;;;;;;24.75;10.98;;;;;;;;;;6249518;28;20018;-81
2023/03/04 04:34:58;;;;;;;2.50;2.42;;;;;;;;;;6245201;28;20029;-81
2023/03/04 04:38:01;;;;;;;10.73;6.97;;;;;;;;;;6246444;28;20048;-81
2023/03/04 04:41:01;;;;;;;1.92;1.88;;;;;;;;;;6245636;28;20070;-81
2023/03/04 04:44:01;;;;;;;5.10;4.67;;;;;;;;;;6245463;28;20017;-81
2023/03/04 04:47:01;;;;;;;4.13;3.80;;;;;;;;;;6234580;28;20028;-80
2023/03/04 04:50:02;;;;;;;4.77;4.47;;;;;;;;;;6250452;28;20032;-81
2023/03/04 04:53:03;;;;;;;10.23;4.37;;;;;;;;;;6231212;28;20072;-80
2023/03/04 04:56:14;;;;;;;5.15;4.93;;;;;;;;;;6248077;28;20038;-80
2023/03/04 04:59:14;;;;;;;7.88;6.85;;;;;;;;;;6249602;28;20435;-80
2023/03/04 05:02:15;;;;;;;14.20;8.60;;;;;;;;;;6246455;28;20025;-80
2023/03/04 05:05:15;;;;;;;5.73;3.60;;;;;;;;;;6246944;28;20041;-80
2023/03/04 05:08:15;;;;;;;3.17;2.97;;;;;;;;;;6244885;28;20052;-80
2023/03/04 05:11:16;;;;;;;14.43;10.70;;;;;;;;;;6245558;28;20091;-79
2023/03/04 05:14:16;;;;;;;3.63;3.43;;;;;;;;;;6244468;28;20483;-79
2023/03/04 05:17:16;;;;;;;8.47;4.43;;;;;;;;;;6244604;28;20112;-79
2023/03/04 05:20:17;;;;;;;8.80;5.70;;;;;;;;;;6248260;28;20033;-79
2023/03/04 05:23:17;;;;;;;9.03;6.27;;;;;;;;;;6244278;28;20068;-79
2023/03/04 05:26:17;;;;;;;18.00;11.27;;;;;;;;;;6231169;28;20021;-78
2023/03/04 05:29:18;;;;;;;8.47;4.27;;;;;;;;;;6244642;28;20463;-79
2023/03/04 05:32:18;;;;;;;8.93;8.27;;;;;;;;;;6246636;28;20013;-79
2023/03/04 05:35:18;;;;;;;5.20;4.80;;;;;;;;;;6247030;28;20034;-79
2023/03/04 05:38:19;;;;;;;10.33;6.47;;;;;;;;;;6227683;28;20037;-79
2023/03/04 05:41:21;;;;;;;10.50;5.70;;;;;;;;;;6244522;28;20026;-79
2023/03/04 05:44:21;;;;;;;5.65;2.92;;;;;;;;;;6249327;28;20030;-79
2023/03/04 05:47:21;;;;;;;6.32;5.82;;;;;;;;;;6249587;28;20014;-79
2023/03/04 05:50:22;;;;;;;3.43;3.30;;;;;;;;;;6252204;28;20406;-80
2023/03/04 05:53:23;;;;;;;4.63;4.43;;;;;;;;;;6251428;28;20029;-79
2023/03/04 05:56:23;;;;;;;3.70;3.57;;;;;;;;;;6248249;28;20018;-79
2023/03/04 05:59:24;;;;;;;6.47;6.07;;;;;;;;;;6244400;28;20032;-79
2023/03/04 06:02:24;;;;;;;10.63;5.23;;;;;;;;;;6247645;28;20020;-79
2023/03/04 06:05:24;;;;;;;12.87;11.63;;;;;;;;;;6246029;28;20016;-78
2023/03/04 06:08:26;;;;;;;4.47;4.25;;;;;;;;;;6257825;28;20039;-79
2023/03/04 06:11:26;;;;;;;10.23;9.30;;;;;;;;;;6254525;28;20071;-79
2023/03/04 06:14:26;;;;;;;4.87;4.40;;;;;;;;;;6236696;28;20029;-78
2023/03/04 06:17:26;;;;;;;3.47;2.70;;;;;;;;;;6245141;28;20029;-78
2023/03/04 06:20:26;;;;;;;4.88;4.43;;;;;;;;;;6244664;28;20068;-78
2023/03/04 06:23:27;;;;;;;5.00;3.50;;;;;;;;;;6246733;28;20029;-78
2023/03/04 06:26:27;;;;;;;5.03;4.67;;;;;;;;;;6255196;28;20017;-78
2023/03/04 06:29:27;;;;;;;1.90;1.80;;;;;;;;;;6255113;28;20055;-79
2023/03/04 06:32:28;;;;;;;5.03;4.73;;;;;;;;;;6263391;28;20028;-79
2023/03/04 06:35:28;;;;;;;10.43;7.67;;;;;;;;;;6258218;28;20025;-77
2023/03/04 06:38:29;;;;;;;3.22;3.05;;;;;;;;;;6251541;28;20453;-78
2023/03/04 06:41:29;;;;;;;4.73;4.53;;;;;;;;;;6251636;28;20024;-78
2023/03/04 06:44:29;;;;;;;8.73;5.83;;;;;;;;;;6250044;28;20494;-78
2023/03/04 06:47:29;;;;;;;8.27;5.00;;;;;;;;;;6236925;28;20028;-78
2023/03/04 06:50:30;;;;;;;3.57;2.83;;;;;;;;;;6252326;28;20024;-79
2023/03/04 06:53:30;;;;;;;6.20;5.80;;;;;;;;;;6261518;28;20027;-78
2023/03/04 06:56:30;;;;;;;3.80;2.97;;;;;;;;;;6261329;28;20436;-79
2023/03/04 06:59:30;;;;;;;3.03;2.83;;;;;;;;;;6266192;28;20017;-79
2023/03/04 07:02:31;;;;;;;4.63;4.33;;;;;;;;;;6247931;28;20087;-78
2023/03/04 07:05:31;;;;;;;5.70;5.20;;;;;;;;;;6244710;28;20025;-78
2023/03/04 07:08:31;;;;;;;2.97;2.78;;;;;;;;;;6251091;28;20533;-78
2023/03/04 07:11:31;;;;;;;4.67;4.37;;;;;;;;;;6251795;28;20546;-79
2023/03/04 07:14:32;;;;;;;4.40;4.20;;;;;;;;;;6250912;28;20026;-79
2023/03/04 07:17:33;;;;;;;4.90;4.53;;;;;;;;;;6242718;28;20044;-79
2023/03/04 07:20:33;;;;;;;1.38;1.38;;;;;;;;;;6248405;28;20029;-79
2023/03/04 07:23:34;;;;;;;12.87;8.90;;;;;;;;;;6244373;28;20419;-79
2023/03/04 07:26:36;;;;;;;12.20;7.50;;;;;;;;;;6246974;28;20021;-79
2023/03/04 07:29:36;;;;;;;5.45;4.10;;;;;;;;;;6252193;28;20104;-80
2023/03/04 07:32:37;;;;;;;4.47;4.20;;;;;;;;;;6248244;28;20040;-79
2023/03/04 07:35:37;;;;;;;11.97;7.30;;;;;;;;;;6229133;28;20034;-78
2023/03/04 07:38:37;;;;;;;0.95;0.95;;;;;;;;;;6247719;28;20034;-79
2023/03/04 07:41:38;;;;;;;2.00;1.90;;;;;;;;;;6247688;28;20112;-79
2023/03/04 07:44:38;;;;;;;2.30;2.20;;;;;;;;;;6250522;28;20029;-79
2023/03/04 07:47:40;;;;;;;1.20;1.20;;;;;;;;;;6249093;28;20029;-78
2023/03/04 07:50:40;;;;;;;4.22;3.95;;;;;;;;;;6233808;28;20392;-79
2023/03/04 07:53:41;;;;;;;6.03;3.87;;;;;;;;;;6213828;28;20036;-78
2023/03/04 07:56:42;;;;;;;6.03;2.40;;;;;;;;;;6218692;28;20028;-79
2023/03/04 07:59:43;;;;;;;8.75;3.22;;;;;;;;;;6236074;28;20036;-78
2023/03/04 08:02:44;;;;;;;0.67;0.67;;;;;;;;;;6244612;28;20036;-79
2023/03/04 08:05:44;;;;;;;2.92;2.72;;;;;;;;;;6248178;28;20363;-80
2023/03/04 08:08:45;;;;;;;4.67;4.23;;;;;;;;;;6229961;28;20113;-80
2023/03/04 08:11:45;;;;;;;3.43;3.23;;;;;;;;;;6233386;28;20048;-79
2023/03/04 08:14:46;;;;;;;1.55;1.50;;;;;;;;;;6226914;28;20032;-79
2023/03/04 08:17:47;;;;;;;4.17;2.87;;;;;;;;;;6247273;28;20021;-79
2023/03/04 08:20:47;;;;;;;4.50;4.18;;;;;;;;;;6249946;28;20040;-78
2023/03/04 08:23:47;;;;;;;2.50;1.95;;;;;;;;;;6247705;28;20109;-79
2023/03/04 08:26:48;;;;;;;5.33;4.83;;;;;;;;;;6253255;28;20036;-79
2023/03/04 08:29:49;;;;;;;2.20;1.63;;;;;;;;;;6246622;28;20406;-79
2023/03/04 08:32:50;;;;;;;2.72;2.63;;;;;;;;;;6237985;28;20033;-80
2023/03/04 08:35:51;;;;;;;10.65;3.00;;;;;;;;;;6248167;28;20494;-81
2023/03/04 08:38:53;;;;;;;4.47;4.05;;;;;;;;;;6252267;28;20369;-81
2023/03/04 08:41:53;;;;;;;6.30;3.67;;;;;;;;;;6252800;28;20032;-80
2023/03/04 08:44:56;;;;;;;5.43;3.03;;;;;;;;;;6247500;28;20021;-80
2023/03/04 08:47:56;;;;;;;4.57;3.72;;;;;;;;;;6251171;28;20463;-80
2023/03/04 08:50:58;;;;;;;1.00;1.00;;;;;;;;;;6244488;28;20029;-81
2023/03/04 08:53:58;;;;;;;4.43;3.85;;;;;;;;;;6247128;28;20078;-81
2023/03/04 08:56:59;;;;;;;2.27;2.17;;;;;;;;;;6244034;28;20021;-81
2023/03/04 09:00:00;;;;;;;2.17;2.08;;;;;;;;;;6248238;28;20029;-81
2023/03/04 09:03:02;;;;;;;6.83;3.47;;;;;;;;;;6242299;28;20422;-81
2023/03/04 09:06:04;;;;;;;3.60;3.40;;;;;;;;;;6244912;28;20086;-82
2023/03/04 09:09:04;;;;;;;1.60;1.55;;;;;;;;;;6244810;28;20127;-82
2023/03/04 09:12:04;;;;;;;1.13;1.13;;;;;;;;;;6248293;28;20042;-82
2023/03/04 09:15:05;;;;;;;2.97;2.77;;;;;;;;;;6244840;28;20430;-82
2023/03/04 09:18:07;;;;;;;12.07;5.50;;;;;;;;;;6245074;28;20096;-82
2023/03/04 09:21:07;;;;;;;3.28;3.00;;;;;;;;;;6233422;28;20022;-81
2023/03/04 09:24:08;;;;;;;8.27;7.43;;;;;;;;;;6248099;28;20133;-81
2023/03/04 09:27:08;;;;;;;3.83;3.43;;;;;;;;;;6245188;28;20479;-81
2023/03/04 09:30:08;;;;;;;8.43;7.33;;;;;;;;;;6256829;28;20451;-82
2023/03/04 09:33:09;;;;;;;11.93;8.80;;;;;;;;;;6244990;28;20018;-82
2023/03/04 09:36:10;;;;;;;7.07;6.57;;;;;;;;;;6256364;28;20026;-81
2023/03/04 09:39:10;;;;;;;7.83;2.90;;;;;;;;;;6233739;28;20021;-81
2023/03/04 09:42:16;;;;;;;8.07;7.33;;;;;;;;;;6246229;28;20366;-81
2023/03/04 09:45:19;;;;;;;9.48;4.68;;;;;;;;;;6235976;28;20049;-81
2023/03/04 09:48:23;;;;;;;5.97;4.22;;;;;;;;;;6244745;28;20033;-81
2023/03/04 09:51:42;;;;;;;3.35;3.20;;;;;;;;;;6245862;28;20022;-80
2023/03/04 09:54:53;;;;;;;6.65;5.45;;;;;;;;;;6248470;28;20148;-81
2023/03/04 09:58:00;;;;;;;3.88;3.70;;;;;;;;;;6249566;28;20013;-81
2023/03/04 10:01:18;;;;;;;7.18;6.57;;;;;;;;;;6250711;28;20104;-81
2023/03/04 10:04:33;;;;;;;3.67;3.47;;;;;;;;;;6231019;28;20115;-80
2023/03/04 10:07:39;;;;;;;12.32;8.15;;;;;;;;;;6237833;28;20471;-80
2023/03/04 10:10:42;;;;;;;1.67;1.67;;;;;;;;;;6254898;28;20021;-80
2023/03/04 10:14:09;;;;;;;1.23;1.23;;;;;;;;;;6251861;28;20053;-80
2023/03/04 10:17:27;;;;;;;7.93;7.30;;;;;;;;;;6224314;28;20045;-81
2023/03/04 10:20:32;;;;;;;8.27;5.57;;;;;;;;;;6242739;28;20025;-80
2023/03/04 10:23:34;;;;;;;5.38;4.82;;;;;;;;;;6222377;28;20034;-81
2023/03/04 10:26:38;;;;;;;5.30;4.30;;;;;;;;;;6249119;28;20020;-80
2023/03/04 10:29:38;;;;;;;2.10;2.00;;;;;;;;;;6248924;28;20029;-80
2023/03/04 10:32:44;;;;;;;9.10;8.37;;;;;;;;;;6260064;28;20025;-81
2023/03/04 10:35:47;;;;;;;9.23;4.88;;;;;;;;;;6247354;28;20501;-79
2023/03/04 10:38:47;;;;;;;4.50;4.18;;;;;;;;;;6246785;28;20152;-79
2023/03/04 10:41:58;;;;;;;8.20;5.93;;;;;;;;;;6249861;28;20372;-79
2023/03/04 10:44:59;;;;;;;10.82;6.38;;;;;;;;;;6247136;28;20033;-79
2023/03/04 10:48:01;;;;;;;10.35;5.80;;;;;;;;;;6242063;28;20518;-79
2023/03/04 10:51:21;;;;;;;4.50;3.33;;;;;;;;;;6245646;28;20029;-79
2023/03/04 10:54:26;;;;;;;1.45;1.42;;;;;;;;;;6235579;28;20488;-79
2023/03/04 10:57:35;;;;;;;24.83;7.22;;;;;;;;;;6253552;28;20021;-80
2023/03/04 11:00:36;;;;;;;4.32;2.72;;;;;;;;;;6241480;28;20428;-80
2023/03/04 11:03:36;;;;;;;4.57;4.27;;;;;;;;;;6228505;28;20025;-79
2023/03/04 11:06:39;;;;;;;4.93;1.77;;;;;;;;;;6245770;28;20087;-79
2023/03/04 11:09:39;;;;;;;7.63;4.90;;;;;;;;;;6248252;28;20025;-79
2023/03/04 11:12:40;;;;;;;4.20;2.23;;;;;;;;;;6249883;28;20137;-79
2023/03/04 11:15:57;;;;;;;0.53;0.53;;;;;;;;;;6245661;28;20022;-79
2023/03/04 11:19:04;;;;;;;4.18;2.58;;;;;;;;;;6240119;28;20112;-79
2023/03/04 11:22:04;;;;;;;3.00;2.85;;;;;;;;;;6244693;28;20036;-78
2023/03/04 11:25:11;;;;;;;3.40;2.90;;;;;;;;;;6246461;28;20478;-78
2023/03/04 11:28:21;;;;;;;4.32;3.90;;;;;;;;;;6242653;28;20037;-79
2023/03/04 11:31:41;;;;;;;7.38;6.78;;;;;;;;;;6248849;28;20140;-78
2023/03/04 11:34:50;;;;;;;12.85;8.38;;;;;;;;;;6231409;28;20495;-79
2023/03/04 11:38:20;;;;;;;15.98;8.90;;;;;;;;;;6257056;28;20429;-79
2023/03/04 11:41:24;;;;;;;3.45;3.25;;;;;;;;;;6241736;28;20065;-78
2023/03/04 11:44:25;;;;;;;4.00;3.80;;;;;;;;;;6229034;28;20038;-78
2023/03/04 11:47:44;;;;;;;7.73;7.20;;;;;;;;;;6248259;28;20025;-78
2023/03/04 11:50:44;;;;;;;2.95;2.75;;;;;;;;;;6245694;28;20536;-78
2023/03/04 11:54:14;;;;;;;5.43;5.00;;;;;;;;;;6251998;28;20442;-79
2023/03/04 11:57:20;;;;;;;7.50;6.85;;;;;;;;;;6205146;28;20065;-79
2023/03/04 12:00:25;;;;;;;7.22;6.80;;;;;;;;;;6252999;28;20041;-77
2023/03/04 12:03:25;;;;;;;8.65;7.50;;;;;;;;;;6254143;28;20108;-78
2023/03/04 12:06:31;;;;;;;6.17;5.77;;;;;;;;;;6248081;28;20024;-78
2023/03/04 12:09:50;;;;;;;3.88;3.63;;;;;;;;;;6250704;28;20027;-78
2023/03/04 12:13:13;;;;;;;10.25;4.80;;;;;;;;;;6251112;28;20080;-78
2023/03/04 12:16:22;;;;;;;4.85;4.38;;;;;;;;;;6255267;28;20054;-78
2023/03/04 12:19:41;;;;;;;23.15;8.38;;;;;;;;;;6243304;28;20028;-78
2023/03/04 12:22:45;;;;;;;7.47;6.70;;;;;;;;;;6244429;28;20100;-79
2023/03/04 12:25:53;;;;;;;22.17;6.50;;;;;;;;;;6251918;28;20012;-79
2023/03/04 12:29:03;;;;;;;12.40;8.55;;;;;;;;;;6244718;28;20100;-78
2023/03/04 12:32:20;;;;;;;4.75;4.40;;;;;;;;;;6250747;28;20052;-77
2023/03/04 12:35:26;;;;;;;6.05;5.57;;;;;;;;;;6220304;28;20029;-77
2023/03/04 12:38:45;;;;;;;5.50;5.00;;;;;;;;;;6253205;28;20044;-78
2023/03/04 12:42:08;;;;;;;4.70;4.28;;;;;;;;;;6247164;28;20033;-78
2023/03/04 12:45:17;;;;;;;12.75;4.75;;;;;;;;;;6244928;28;20041;-78
2023/03/04 12:48:24;;;;;;;11.45;5.93;;;;;;;;;;6246480;28;20024;-78
2023/03/04 12:51:29;;;;;;;2.55;2.40;;;;;;;;;;6248572;28;20035;-78
2023/03/04 12:54:43;;;;;;;5.22;4.05;;;;;;;;;;6228166;28;20078;-77
2023/03/04 12:57:43;;;;;;;11.77;8.20;;;;;;;;;;6250550;28;20460;-77
2023/03/04 13:00:50;;;;;;;8.10;5.73;;;;;;;;;;6251716;28;20040;-77
2023/03/04 13:03:51;;;;;;;2.67;2.55;;;;;;;;;;6245139;28;20072;-78
2023/03/04 13:07:09;;;;;;;7.45;5.55;;;;;;;;;;6216913;28;20032;-77
2023/03/04 13:10:11;;;;;;;6.43;5.93;;;;;;;;;;6240792;28;20025;-78
2023/03/04 13:13:30;;;;;;;4.95;4.72;;;;;;;;;;6246797;28;20050;-78
2023/03/04 13:16:41;;;;;;;6.47;6.07;;;;;;;;;;6223257;28;20079;-78
2023/03/04 13:19:45;;;;;;;2.45;2.30;;;;;;;;;;6246702;28;20022;-78
2023/03/04 13:22:55;;;;;;;4.88;4.50;;;;;;;;;;6246579;28;20033;-78
2023/03/04 13:25:57;;;;;;;13.38;5.15;;;;;;;;;;6237298;28;20025;-78
2023/03/04 13:29:27;;;;;;;6.47;5.95;;;;;;;;;;6249753;28;20018;-78
2023/03/04 13:32:35;;;;;;;5.40;4.60;;;;;;;;;;6226688;28;20037;-78
2023/03/04 13:35:45;;;;;;;6.25;5.85;;;;;;;;;;6244353;28;20021;-78
2023/03/04 13:38:55;;;;;;;2.58;2.47;;;;;;;;;;6233541;28;20049;-78
2023/03/04 13:41:58;;;;;;;10.75;6.45;;;;;;;;;;6227251;28;20545;-78
2023/03/04 13:44:58;;;;;;;14.07;9.05;;;;;;;;;;6236285;28;20468;-77
2023/03/04 13:48:00;;;;;;;3.37;3.17;;;;;;;;;;6244908;28;20028;-79
2023/03/04 13:51:00;;;;;;;5.55;5.13;;;;;;;;;;6244383;28;20036;-79
2023/03/04 13:54:01;;;;;;;18.23;6.50;;;;;;;;;;6251536;28;20028;-78
2023/03/04 13:57:21;;;;;;;3.17;2.88;;;;;;;;;;6238140;28;20029;-78
2023/03/04 14:00:21;;;;;;;5.28;4.95;;;;;;;;;;6240040;28;20479;-78
2023/03/04 14:03:25;;;;;;;2.10;2.00;;;;;;;;;;6244266;28;20072;-78
2023/03/04 14:06:29;;;;;;;8.40;7.72;;;;;;;;;;6242824;28;20276;-78
2023/03/04 14:09:32;;;;;;;7.20;6.15;;;;;;;;;;6250894;28;20087;-78
2023/03/04 14:12:50;;;;;;;3.92;3.63;;;;;;;;;;6251422;28;20069;-79
2023/03/04 14:15:55;;;;;;;5.15;4.50;;;;;;;;;;6226126;28;20433;-78
2023/03/04 14:19:05;;;;;;;7.85;6.50;;;;;;;;;;6230910;28;20036;-79
2023/03/04 14:22:38;;;;;;;3.05;2.95;;;;;;;;;;6238762;28;20032;-79
2023/03/04 14:25:38;;;;;;;11.18;10.02;;;;;;;;;;6205106;28;20049;-78
2023/03/04 14:28:46;;;;;;;11.47;10.00;;;;;;;;;;6244462;28;20028;-79
2023/03/04 14:31:47;;;;;;;6.38;5.93;;;;;;;;;;6250311;28;20041;-78
2023/03/04 14:34:48;;;;;;;13.17;8.43;;;;;;;;;;6244806;28;20367;-78
2023/03/04 14:37:48;;;;;;;;;;;;;;;;;;6245449;28;20029;-78
2023/03/04 14:41:05;;;;;;;12.23;7.15;;;;;;;;;;6253978;28;19908;-78
2023/03/04 14:44:09;;;;;;;9.45;7.60;;;;;;;;;;6237012;28;20560;-78
2023/03/04 14:47:32;;;;;;;4.82;4.45;;;;;;;;;;6234883;28;20018;-78
2023/03/04 14:50:32;;;;;;;4.70;4.45;;;;;;;;;;6237378;28;20103;-78
2023/03/04 14:53:33;;;;;;;4.27;4.03;;;;;;;;;;6245740;28;20030;-78
2023/03/04 14:56:35;;;;;;;14.03;8.87;;;;;;;;;;6256605;28;20024;-78
2023/03/04 14:59:38;;;;;;;67.45;7.68;;;;;;;;;;6253054;28;20025;-78
2023/03/04 15:02:39;;;;;;;12.95;5.80;;;;;;;;;;6253422;28;20506;-78
2023/03/04 15:05:39;;;;;;;5.47;4.90;;;;;;;;;;6247557;28;20021;-78
2023/03/04 15:08:40;;;;;;;5.17;4.77;;;;;;;;;;6250698;28;20017;-77
2023/03/04 15:11:45;;;;;;;5.73;5.37;;;;;;;;;;6248796;28;20392;-78
2023/03/04 15:14:47;;;;;;;8.75;7.88;;;;;;;;;;6251923;28;20030;-77
2023/03/04 15:17:56;;;;;;;3.85;3.58;;;;;;;;;;6233866;28;20017;-77
2023/03/04 15:20:56;;;;;;;56.20;6.93;;;;;;;;;;6246144;28;20032;-78
2023/03/04 15:23:56;;;;;;;3.87;3.67;;;;;;;;;;6255589;28;20441;-78
2023/03/04 15:26:57;;;;;;;3.53;3.23;;;;;;;;;;6260309;28;20021;-78
2023/03/04 15:29:59;;;;;;;3.10;2.92;;;;;;;;;;6251723;28;20020;-77
2023/03/04 15:32:59;;;;;;;5.53;3.80;;;;;;;;;;6245888;28;20017;-77
2023/03/04 15:36:01;;;;;;;4.07;3.77;;;;;;;;;;6252817;28;20056;-78
2023/03/04 15:39:01;;;;;;;5.10;4.77;;;;;;;;;;6251323;28;20089;-77
2023/03/04 15:42:01;;;;;;;4.43;4.17;;;;;;;;;;6249175;28;21316;-77
2023/03/04 15:45:09;;;;;;;2.00;1.90;;;;;;;;;;6230478;28;20029;-78
2023/03/04 15:48:11;;;;;;;5.35;4.65;;;;;;;;;;6243464;28;20017;-78
2023/03/04 15:51:11;;;;;;;;;;;;;;;;;;6244928;28;20104;-77
2023/03/04 15:54:12;;;;;;;5.07;3.50;;;;;;;;;;6249524;28;19908;-78
2023/03/04 15:57:19;;;;;;;4.35;4.05;;;;;;;;;;6246354;28;20068;-78
2023/03/04 16:00:19;;;;;;;2.38;2.28;;;;;;;;;;6241646;28;20117;-78
2023/03/04 16:03:20;;;;;;;2.93;2.63;;;;;;;;;;6243424;28;20018;-78
2023/03/04 16:06:22;;;;;;;5.73;5.37;;;;;;;;;;6245934;28;20018;-78
2023/03/04 16:09:22;;;;;;;5.15;4.72;;;;;;;;;;6248795;28;20017;-78
2023/03/04 16:12:24;;;;;;;5.50;5.13;;;;;;;;;;6247517;28;20590;-78
2023/03/04 16:15:26;;;;;;;8.32;3.80;;;;;;;;;;6242438;28;20079;-78
2023/03/04 16:18:26;;;;;;;;;;;;;;;;;;6246635;28;20386;-78
2023/03/04 16:21:26;;;;;;;6.38;5.88;;;;;;;;;;6245231;28;19909;-78
2023/03/04 16:24:29;;;;;;;4.73;4.33;;;;;;;;;;6243583;28;20025;-78
2023/03/04 16:27:32;;;;;;;10.82;7.60;;;;;;;;;;6236323;28;20017;-79
2023/03/04 16:30:32;;;;;;;4.18;3.85;;;;;;;;;;6255718;28;20465;-78
2023/03/04 16:33:34;;;;;;;7.57;7.07;;;;;;;;;;6235346;28;20026;-78
2023/03/04 16:36:34;;;;;;;2.53;2.38;;;;;;;;;;6257370;28;20052;-79
2023/03/04 16:39:35;;;;;;;2.80;2.63;;;;;;;;;;6250421;28;20025;-78
2023/03/04 16:42:35;;;;;;;5.43;5.13;;;;;;;;;;6236418;28;20056;-78
2023/03/04 16:45:36;;;;;;;3.15;2.95;;;;;;;;;;6250415;28;20029;-79
2023/03/04 16:48:37;;;;;;;2.25;2.15;;;;;;;;;;6244936;28;20448;-78
2023/03/04 16:51:45;;;;;;;8.00;7.50;;;;;;;;;;6225844;28;20098;-79
2023/03/04 16:54:45;;;;;;;18.40;12.02;;;;;;;;;;6243615;28;20052;-79
2023/03/04 16:57:46;;;;;;;7.13;5.33;;;;;;;;;;6232209;28;20017;-79
2023/03/04 17:00:47;;;;;;;5.97;5.03;;;;;;;;;;6246352;28;20546;-78
2023/03/04 17:03:47;;;;;;;13.52;5.05;;;;;;;;;;6244559;28;20029;-78
2023/03/04 17:06:47;;;;;;;2.53;2.43;;;;;;;;;;6249737;28;20056;-78
2023/03/04 17:09:49;;;;;;;3.73;3.47;;;;;;;;;;6256422;28;20044;-78
2023/03/04 17:12:50;;;;;;;6.07;5.45;;;;;;;;;;6252923;28;20053;-79
2023/03/04 17:15:50;;;;;;;7.80;6.50;;;;;;;;;;6257777;28;20025;-78
2023/03/04 17:18:51;;;;;;;6.33;5.90;;;;;;;;;;6245968;28;20075;-78
2023/03/04 17:21:51;;;;;;;3.80;3.60;;;;;;;;;;6250465;28;20411;-77
2023/03/04 17:24:51;;;;;;;6.80;6.30;;;;;;;;;;6253841;28;20014;-77
2023/03/04 17:27:57;;;;;;;5.32;4.65;;;;;;;;;;6250354;28;20463;-77
2023/03/04 17:30:57;;;;;;;4.43;3.60;;;;;;;;;;6253014;28;20132;-80
2023/03/04 17:33:57;;;;;;;6.87;6.17;;;;;;;;;;6252416;28;20110;-77
2023/03/04 17:36:58;;;;;;;5.87;5.47;;;;;;;;;;6257713;28;20507;-78
2023/03/04 17:39:58;;;;;;;5.43;4.20;;;;;;;;;;6257346;28;20031;-78
2023/03/04 17:42:58;;;;;;;5.43;4.90;;;;;;;;;;6246197;28;20503;-77
2023/03/04 17:46:11;;;;;;;3.00;2.87;;;;;;;;;;6252842;28;20021;-77
2023/03/04 17:49:11;;;;;;;6.95;6.28;;;;;;;;;;6255793;28;20101;-79
2023/03/04 17:52:11;;;;;;;5.57;4.67;;;;;;;;;;6250485;28;20029;-78
2023/03/04 17:55:12;;;;;;;6.47;5.93;;;;;;;;;;6256107;28;20033;-80
2023/03/04 17:58:28;;;;;;;11.57;8.07;;;;;;;;;;6251103;28;20064;-79
2023/03/04 18:01:29;;;;;;;13.40;5.55;;;;;;;;;;6246656;28;20037;-77
2023/03/04 18:04:29;;;;;;;3.63;3.43;;;;;;;;;;6253907;28;20017;-77
2023/03/04 18:07:29;;;;;;;5.97;5.43;;;;;;;;;;6247539;28;20467;-78
2023/03/04 18:10:35;;;;;;;2.17;2.07;;;;;;;;;;6256315;28;20055;-78
2023/03/04 18:13:40;;;;;;;4.60;4.22;;;;;;;;;;6253005;28;20470;-78